Time;durP1;ratioP1;P1;durP2;ratioP2;P2;SDS_P1;SDS_P2;PMS_P1;PMS_P2;Temp;Humidity;BMP_temperature;BMP_pressure;BME280_temperature;BME280_humidity;BME280_pressure;Samples;Min_cycle;Max_cycle;Signal;HPM_P1;HPM_P2
2022/12/10 00:01:08;;;;;;;23.65;16.60;;;;;;;2.63;73.54;95441.88;5075260;28;20052;-80
2022/12/10 00:03:37;;;;;;;23.90;16.60;;;;;;;2.65;72.59;95442.50;5075079;28;20106;-80
2022/12/10 00:06:07;;;;;;;24.60;15.75;;;;;;;2.67;72.76;95445.72;5075164;28;20057;-80
2022/12/10 00:08:35;;;;;;;27.83;16.55;;;;;;;2.66;72.62;95451.81;5074678;28;20537;-80
2022/12/10 00:11:04;;;;;;;21.00;14.95;;;;;;;2.66;73.02;95446.69;5074118;28;20048;-80
2022/12/10 00:13:33;;;;;;;24.20;15.10;;;;;;;2.67;73.38;95440.59;5074328;28;20453;-80
2022/12/10 00:16:01;;;;;;;25.15;17.55;;;;;;;2.66;73.13;95451.81;5075105;28;20055;-80
2022/12/10 00:18:30;;;;;;;21.58;14.40;;;;;;;2.66;73.38;95446.69;5074610;28;20417;-80
2022/12/10 00:20:57;;;;;;;20.67;15.68;;;;;;;2.64;72.91;95443.47;5072929;28;20055;-80
2022/12/10 00:23:25;;;;;;;22.40;15.95;;;;;;;2.64;73.35;95433.97;5072791;28;20063;-80
2022/12/10 00:25:52;;;;;;;24.33;15.23;;;;;;;2.67;73.55;95435.44;5080975;28;20048;-79
2022/12/10 00:28:20;;;;;;;23.60;16.27;;;;;;;2.69;73.97;95425.78;5072208;28;20059;-77
2022/12/10 00:30:48;;;;;;;22.38;14.75;;;;;;;2.67;73.68;95430.28;5072523;28;20096;-78
2022/12/10 00:33:15;;;;;;;23.75;16.08;;;;;;;2.67;74.02;95425.13;5072718;28;20056;-80
2022/12/10 00:35:44;;;;;;;28.13;16.45;;;;;;;2.68;73.72;95427.53;5073748;28;20036;-80
2022/12/10 00:38:12;;;;;;;24.10;16.15;;;;;;;2.70;74.26;95427.38;5075184;28;20044;-80
2022/12/10 00:40:39;;;;;;;24.25;17.27;;;;;;;2.70;73.58;95426.56;5075129;28;20052;-80
2022/12/10 00:43:07;;;;;;;24.48;16.50;;;;;;;2.68;74.00;95429.31;5075066;28;20075;-80
2022/12/10 00:45:35;;;;;;;24.92;16.90;;;;;;;2.66;73.36;95426.88;5074155;28;20052;-80
2022/12/10 00:48:02;;;;;;;25.45;16.13;;;;;;;2.65;73.25;95422.72;5073888;28;20513;-80
2022/12/10 00:50:30;;;;;;;26.65;17.40;;;;;;;2.59;72.44;95425.13;5074310;28;20110;-80
2022/12/10 00:52:59;;;;;;;26.52;16.90;;;;;;;2.53;71.77;95416.25;5087337;28;20052;-80
2022/12/10 00:55:26;;;;;;;28.60;16.98;;;;;;;2.53;71.61;95420.63;5098676;28;20028;-80
2022/12/10 00:57:54;;;;;;;25.30;16.52;;;;;;;2.53;72.19;95421.41;5081361;28;20051;-80
2022/12/10 01:00:21;;;;;;;25.02;16.52;;;;;;;2.52;71.74;95427.53;5074901;28;20049;-80
2022/12/10 01:02:49;;;;;;;23.15;16.17;;;;;;;2.52;72.18;95429.31;5073874;28;20048;-80
2022/12/10 01:05:16;;;;;;;25.25;15.90;;;;;;;2.55;72.87;95429.78;5073931;28;20127;-80
2022/12/10 01:07:45;;;;;;;22.90;15.95;;;;;;;2.58;73.10;95428.66;5073869;28;20048;-80
2022/12/10 01:10:14;;;;;;;26.88;17.17;;;;;;;2.55;72.08;95434.94;5073716;28;20498;-80
2022/12/10 01:12:42;;;;;;;22.92;15.35;;;;;;;2.55;72.58;95434.94;5073922;28;20407;-80
2022/12/10 01:15:09;;;;;;;24.05;16.33;;;;;;;2.58;73.06;95444.09;5073423;28;20074;-80
2022/12/10 01:17:37;;;;;;;24.23;15.77;;;;;;;2.61;73.44;95436.06;5073673;28;20418;-80
2022/12/10 01:20:05;;;;;;;24.88;15.85;;;;;;;2.62;73.15;95442.81;5073482;28;20052;-80
2022/12/10 01:22:34;;;;;;;24.42;15.02;;;;;;;2.63;73.11;95439.28;5073635;28;20054;-80
2022/12/10 01:25:02;;;;;;;25.90;17.05;;;;;;;2.62;72.94;95440.25;5073387;28;20411;-80
2022/12/10 01:27:30;;;;;;;24.45;15.57;;;;;;;2.58;72.35;95442.34;5073788;28;20057;-81
2022/12/10 01:29:58;;;;;;;26.13;17.10;;;;;;;2.56;73.00;95446.84;5073146;28;20055;-81
2022/12/10 01:32:25;;;;;;;24.13;15.90;;;;;;;2.57;73.06;95453.59;5073459;28;20052;-80
2022/12/10 01:34:53;;;;;;;25.73;15.88;;;;;;;2.61;73.63;95454.88;5073099;28;20048;-80
2022/12/10 01:37:20;;;;;;;25.67;16.35;;;;;;;2.63;73.05;95449.59;5073549;28;20048;-80
2022/12/10 01:39:48;;;;;;;24.95;15.30;;;;;;;2.62;72.31;95453.13;5072806;28;20041;-80
2022/12/10 01:42:16;;;;;;;26.55;15.32;;;;;;;2.61;72.54;95454.09;5073251;28;20044;-80
2022/12/10 01:45:15;;;;;;;22.58;14.32;;;;;;;2.61;73.51;95457.47;5073454;28;20052;-80
2022/12/10 01:47:42;;;;;;;20.52;14.35;;;;;;;2.64;73.54;95462.28;5011142;28;20058;-80
2022/12/10 01:50:10;;;;;;;19.40;14.55;;;;;;;2.67;73.41;95466.34;5058919;28;20056;-80
2022/12/10 01:52:39;;;;;;;19.42;14.20;;;;;;;2.68;73.43;95465.34;5073183;28;20472;-80
2022/12/10 01:55:29;;;;;;;21.48;15.13;;;;;;;2.69;73.26;95464.41;5074222;28;20047;-80
2022/12/10 01:57:58;;;;;;;23.90;15.50;;;;;;;2.71;73.54;95465.00;5073141;28;20059;-80
2022/12/10 02:00:26;;;;;;;22.02;15.23;;;;;;;2.70;72.82;95471.16;5075012;28;20068;-81
2022/12/10 02:03:00;;;;;;;23.75;15.38;;;;;;;2.67;72.25;95471.47;5077334;28;20525;-80
2022/12/10 02:05:34;;;;;;;21.55;14.80;;;;;;;2.65;72.30;95469.06;5073303;28;20075;-80
2022/12/10 02:08:08;;;;;;;21.60;15.07;;;;;;;2.66;72.98;95473.22;5072839;28;20060;-80
2022/12/10 02:10:48;;;;;;;22.80;15.55;;;;;;;2.66;72.83;95475.00;5073078;28;20131;-80
2022/12/10 02:13:23;;;;;;;23.65;15.52;;;;;;;2.64;73.06;95479.50;5071660;28;20063;-80
2022/12/10 02:15:54;;;;;;;21.65;14.07;;;;;;;2.63;72.70;95473.56;5072303;28;20045;-80
2022/12/10 02:18:28;;;;;;;20.90;15.07;;;;;;;2.65;73.04;95471.63;5072515;28;20048;-81
2022/12/10 02:20:58;;;;;;;21.92;15.80;;;;;;;2.65;72.36;95470.84;5072133;28;20049;-81
2022/12/10 02:23:30;;;;;;;26.20;15.95;;;;;;;2.63;72.93;95475.34;5072373;28;20052;-81
2022/12/10 02:26:03;;;;;;;25.67;16.63;;;;;;;2.60;72.12;95467.91;5072581;28;20075;-81
2022/12/10 02:28:40;;;;;;;23.50;15.90;;;;;;;2.59;72.60;95472.25;5072580;28;20410;-81
2022/12/10 02:31:11;;;;;;;22.20;15.10;;;;;;;2.58;72.85;95475.00;5073095;28;20052;-81
2022/12/10 02:33:44;;;;;;;22.50;15.10;;;;;;;2.55;72.88;95477.91;5072205;28;20049;-81
2022/12/10 02:36:14;;;;;;;22.52;15.77;;;;;;;2.54;73.10;95473.72;5072901;28;20044;-81
2022/12/10 02:38:44;;;;;;;25.50;17.02;;;;;;;2.53;73.22;95470.31;5072341;28;20049;-81
2022/12/10 02:41:16;;;;;;;26.10;17.77;;;;;;;2.52;72.33;95466.16;5072379;28;20415;-81
2022/12/10 02:43:46;;;;;;;;;;;;;;;2.55;72.96;95463.25;5072870;28;20049;-81
2022/12/10 02:46:16;;;;;;;21.63;15.13;;;;;;;2.53;72.66;95461.81;5072732;28;19924;-81
2022/12/10 02:48:46;;;;;;;21.27;15.10;;;;;;;2.54;73.23;95461.66;5072295;28;20055;-81
2022/12/10 02:51:13;;;;;;;22.60;15.23;;;;;;;2.55;73.41;95465.81;5072257;28;20066;-81
2022/12/10 02:53:43;;;;;;;22.17;15.48;;;;;;;2.54;73.01;95463.44;5072280;28;20059;-81
2022/12/10 02:56:20;;;;;;;27.80;16.85;;;;;;;2.50;72.71;95457.00;5072365;28;20048;-81
2022/12/10 02:58:59;;;;;;;27.63;17.25;;;;;;;2.45;72.21;95458.25;5072068;28;20059;-81
2022/12/10 03:01:39;;;;;;;22.85;16.05;;;;;;;2.44;71.72;95461.78;5072090;28;20049;-81
2022/12/10 03:04:14;;;;;;;24.92;14.98;;;;;;;2.43;71.63;95462.75;5072309;28;20048;-80
2022/12/10 03:06:46;;;;;;;24.35;15.95;;;;;;;2.42;71.98;95461.13;5072324;28;20055;-80
2022/12/10 03:09:20;;;;;;;22.92;14.70;;;;;;;2.42;72.15;95452.63;5072484;28;20072;-81
2022/12/10 03:11:53;;;;;;;23.77;16.58;;;;;;;2.40;71.11;95455.34;5072555;28;20040;-79
2022/12/10 03:14:25;;;;;;;24.10;15.75;;;;;;;2.38;72.08;95449.53;5072134;28;20053;-80
2022/12/10 03:16:56;;;;;;;23.15;14.45;;;;;;;2.37;71.22;95447.94;5072161;28;20131;-81
2022/12/10 03:19:29;;;;;;;25.13;16.08;;;;;;;2.37;71.15;95447.16;5072185;28;20045;-81
2022/12/10 03:21:59;;;;;;;24.00;16.33;;;;;;;2.36;71.66;95441.22;5072230;28;20056;-81
2022/12/10 03:24:28;;;;;;;26.20;16.30;;;;;;;2.34;71.01;95440.56;5072203;28;20052;-81
2022/12/10 03:26:58;;;;;;;23.48;15.75;;;;;;;2.31;71.09;95446.00;5072460;28;20139;-81
2022/12/10 03:29:31;;;;;;;23.25;15.00;;;;;;;2.30;71.39;95451.34;5072402;28;20063;-80
2022/12/10 03:32:01;;;;;;;25.42;16.13;;;;;;;2.29;71.54;95450.50;5072572;28;20501;-80
2022/12/10 03:34:29;;;;;;;24.85;15.57;;;;;;;2.27;71.37;95449.84;5072448;28;20053;-81
2022/12/10 03:36:58;;;;;;;24.00;15.63;;;;;;;2.26;71.78;95450.84;5086423;28;20042;-81
2022/12/10 03:39:27;;;;;;;24.05;15.98;;;;;;;2.24;71.74;95452.75;5095917;28;20048;-80
2022/12/10 03:41:55;;;;;;;23.67;16.27;;;;;;;2.24;71.59;95448.41;5078394;28;20052;-80
2022/12/10 03:44:29;;;;;;;25.60;15.75;;;;;;;2.23;70.98;95446.00;5072580;28;20060;-80
2022/12/10 03:46:58;;;;;;;24.45;15.85;;;;;;;2.20;71.29;95443.75;5074153;28;20379;-81
2022/12/10 03:49:27;;;;;;;27.63;16.80;;;;;;;2.20;71.06;95438.59;5075948;28;20049;-81
2022/12/10 03:51:55;;;;;;;24.58;15.48;;;;;;;2.17;71.32;95446.63;5075787;28;20398;-80
2022/12/10 03:54:22;;;;;;;22.67;15.48;;;;;;;2.18;72.11;95458.53;5075550;28;20056;-80
2022/12/10 03:56:50;;;;;;;24.17;15.88;;;;;;;2.22;72.20;95459.81;5075656;28;20410;-81
2022/12/10 03:59:18;;;;;;;24.52;15.88;;;;;;;2.23;71.98;95461.44;5075815;28;20059;-81
2022/12/10 04:01:46;;;;;;;28.17;16.65;;;;;;;2.25;71.45;95456.94;5076296;28;20056;-81
2022/12/10 04:04:13;;;;;;;25.13;16.08;;;;;;;2.28;71.73;95463.56;5080421;28;20467;-80
2022/12/10 04:06:43;;;;;;;26.05;16.85;;;;;;;2.28;72.24;95459.19;5079599;28;20040;-81
2022/12/10 04:09:12;;;;;;;21.58;14.95;;;;;;;2.28;71.91;95463.56;5075420;28;20056;-81
2022/12/10 04:11:40;;;;;;;22.73;15.18;;;;;;;2.31;72.59;95463.22;5075296;28;20052;-80
2022/12/10 04:16:54;;;;;;;23.52;15.27;;;;;;;2.36;72.63;95464.38;5075333;28;20048;-80
2022/12/10 04:19:22;;;;;;;24.70;15.95;;;;;;;2.35;72.03;95452.44;5074945;28;20139;-81
2022/12/10 04:27:24;;;;;;;25.23;16.13;;;;;;;2.31;71.70;95432.34;5075128;28;20041;-81
2022/12/10 04:29:53;;;;;;;26.33;16.27;;;;;;;2.28;71.72;95437.81;5075141;28;20102;-81
2022/12/10 04:32:21;;;;;;;26.15;16.55;;;;;;;2.27;71.59;95437.00;5074815;28;20048;-80
2022/12/10 04:34:49;;;;;;;25.27;17.25;;;;;;;2.27;71.18;95437.00;5074686;28;20502;-80
2022/12/10 04:37:19;;;;;;;25.27;16.05;;;;;;;2.22;70.90;95439.25;5074199;28;20044;-81
2022/12/10 04:39:47;;;;;;;25.45;16.20;;;;;;;2.18;71.25;95448.25;5074990;28;20555;-81
2022/12/10 04:42:14;;;;;;;27.85;17.23;;;;;;;2.15;71.15;95448.56;5074906;28;20052;-81
2022/12/10 04:44:42;;;;;;;26.63;17.20;;;;;;;2.11;71.47;95442.13;5074553;28;20410;-81
2022/12/10 04:47:11;;;;;;;27.02;17.25;;;;;;;2.09;71.86;95442.28;5074487;28;20048;-81
2022/12/10 04:49:38;;;;;;;23.58;15.48;;;;;;;2.12;71.83;95448.88;5074467;28;20056;-81
2022/12/10 04:52:09;;;;;;;23.00;15.43;;;;;;;2.15;73.35;95448.56;5074811;28;20059;-81
2022/12/10 04:54:37;;;;;;;25.80;16.83;;;;;;;2.21;72.97;95463.38;5074411;28;20052;-81
2022/12/10 04:57:06;;;;;;;23.70;15.75;;;;;;;2.23;72.97;95444.25;5073942;28;20067;-81
2022/12/10 04:59:34;;;;;;;23.95;16.35;;;;;;;2.24;72.05;95447.63;5074389;28;20055;-81
2022/12/10 05:02:01;;;;;;;26.40;16.02;;;;;;;2.20;71.81;95446.31;5074638;28;20056;-80
2022/12/10 05:04:29;;;;;;;25.92;16.70;;;;;;;2.22;72.29;95447.75;5074392;28;20048;-80
2022/12/10 05:06:56;;;;;;;23.38;14.95;;;;;;;2.27;72.69;95452.44;5074208;28;20156;-81
2022/12/10 05:09:24;;;;;;;25.08;16.25;;;;;;;2.30;72.61;95457.28;5073722;28;20064;-80
2022/12/10 05:11:53;;;;;;;25.60;16.70;;;;;;;2.32;72.61;95457.94;5073974;28;20078;-80
2022/12/10 05:14:20;;;;;;;22.15;14.40;;;;;;;2.33;71.30;95456.94;5073924;28;20055;-80
2022/12/10 05:16:50;;;;;;;23.98;15.25;;;;;;;2.33;70.73;95461.28;5074182;28;20555;-81
2022/12/10 05:19:19;;;;;;;26.40;16.42;;;;;;;2.33;70.88;95454.38;5074129;28;20051;-80
2022/12/10 05:24:32;;;;;;;23.42;15.13;;;;;;;2.38;71.90;95461.63;5073485;28;20048;-80
2022/12/10 05:27:01;;;;;;;23.67;16.60;;;;;;;2.42;72.22;95466.28;5074040;28;20053;-80
2022/12/10 05:29:28;;;;;;;19.65;12.80;;;;;;;2.46;71.21;95467.59;5073412;28;20067;-80
2022/12/10 05:31:56;;;;;;;19.85;13.00;;;;;;;2.44;69.89;95472.09;5073845;28;20063;-80
2022/12/10 05:34:24;;;;;;;21.30;13.93;;;;;;;2.44;70.30;95469.50;5073527;28;20048;-81
2022/12/10 05:36:51;;;;;;;19.75;13.90;;;;;;;2.45;71.00;95471.13;5073654;28;20102;-81
2022/12/10 05:39:19;;;;;;;21.20;14.20;;;;;;;2.47;71.58;95468.38;5080505;28;20075;-80
2022/12/10 05:41:46;;;;;;;23.52;14.82;;;;;;;2.46;71.16;95472.72;5093986;28;20571;-81
2022/12/10 05:44:15;;;;;;;20.30;13.48;;;;;;;2.46;72.06;95472.72;5093429;28;20063;-82
2022/12/10 05:46:48;;;;;;;20.05;14.05;;;;;;;2.46;71.95;95483.03;5095902;28;20048;-83
2022/12/10 05:49:16;;;;;;;21.55;14.35;;;;;;;2.45;70.60;95475.47;5093331;28;20429;-81
2022/12/10 05:51:43;;;;;;;19.42;14.15;;;;;;;2.42;71.51;95486.88;5093870;28;20056;-82
2022/12/10 05:54:11;;;;;;;21.05;13.55;;;;;;;2.41;70.75;95480.13;5073773;28;20048;-79
2022/12/10 05:56:39;;;;;;;17.83;11.93;;;;;;;2.40;69.29;95480.28;5083793;28;20068;-82
2022/12/10 06:00:00;;;;;;;18.90;12.85;;;;;;;2.37;67.07;95486.56;5102128;28;20520;-82
2022/12/10 06:10:49;;;;;;;20.75;13.55;;;;;;;2.38;69.58;95500.22;4999115;28;20249;-82
2022/12/10 06:16:27;;;;;;;19.17;13.40;;;;;;;2.37;70.34;95502.00;5158730;22;20057;-81
2022/12/10 06:18:56;;;;;;;20.05;13.75;;;;;;;2.35;68.91;95501.34;5054218;28;20044;-82
2022/12/10 06:26:38;;;;;;;21.25;14.27;;;;;;;2.31;69.44;95509.53;5053482;28;20140;-82
2022/12/10 06:29:06;;;;;;;19.00;14.20;;;;;;;2.25;69.69;95500.66;5054520;28;20421;-81
2022/12/10 06:34:22;;;;;;;20.60;13.45;;;;;;;2.21;70.13;95496.81;5053715;28;20080;-81
2022/12/10 06:36:55;;;;;;;22.23;14.88;;;;;;;2.23;69.71;95511.13;5053948;28;20095;-81
2022/12/10 06:39:27;;;;;;;19.67;13.27;;;;;;;2.24;70.56;95509.38;5054041;28;20059;-81
2022/12/10 06:41:58;;;;;;;21.25;15.13;;;;;;;2.24;69.53;95509.38;5053947;28;20056;-82
2022/12/10 06:44:28;;;;;;;24.52;15.70;;;;;;;2.20;69.73;95518.34;5053878;28;20053;-82
2022/12/10 06:47:01;;;;;;;21.02;14.93;;;;;;;2.18;69.71;95525.41;5054094;28;20503;-81
2022/12/10 06:49:34;;;;;;;21.35;14.90;;;;;;;2.19;70.89;95521.91;5054212;28;20056;-81
2022/12/10 06:52:05;;;;;;;24.05;15.27;;;;;;;2.20;71.15;95519.16;5053977;28;20080;-81
2022/12/10 06:57:04;;;;;;;21.63;14.70;;;;;;;2.19;71.02;95506.47;5032004;28;20050;-81
2022/12/10 06:59:32;;;;;;;23.00;14.68;;;;;;;2.21;71.48;95510.50;5033538;28;20140;-82
2022/12/10 07:02:01;;;;;;;24.13;15.60;;;;;;;2.20;70.88;95502.91;5033707;28;20172;-82
2022/12/10 07:04:32;;;;;;;23.15;16.17;;;;;;;2.20;71.43;95511.44;5033752;28;20483;-82
2022/12/10 07:09:51;;;;;;;26.85;16.92;;;;;;;2.25;71.43;95514.38;5033730;28;20422;-82
2022/12/10 07:15:53;;;;;;;23.52;15.30;;;;;;;2.33;71.73;95507.63;5053823;22;20580;-76
2022/12/10 07:18:22;;;;;;;23.05;15.77;;;;;;;2.32;72.81;95511.97;5068736;28;20053;-76
2022/12/10 07:20:50;;;;;;;22.90;15.57;;;;;;;2.34;72.66;95504.91;5054262;28;20055;-77
2022/12/10 07:23:17;;;;;;;25.20;16.00;;;;;;;2.34;71.52;95511.78;5054707;28;20053;-76
2022/12/10 07:25:45;;;;;;;25.98;16.35;;;;;;;2.30;71.77;95515.66;5047837;28;20049;-75
2022/12/10 07:28:13;;;;;;;26.73;17.08;;;;;;;2.29;71.57;95522.56;5035719;28;20136;-76
2022/12/10 07:30:41;;;;;;;22.88;15.00;;;;;;;2.30;71.50;95518.25;5050449;28;20414;-74
2022/12/10 07:33:08;;;;;;;25.42;16.60;;;;;;;2.31;71.31;95523.22;5046552;28;20049;-76
2022/12/10 07:35:40;;;;;;;28.25;17.67;;;;;;;2.31;71.87;95522.41;5036948;28;20059;-78
2022/12/10 07:38:15;;;;;;;23.27;15.85;;;;;;;2.32;71.81;95539.44;5035843;28;20051;-76
2022/12/10 07:40:43;;;;;;;26.73;16.73;;;;;;;2.32;71.72;95535.13;5035819;28;20054;-80
2022/12/10 07:43:11;;;;;;;26.92;18.30;;;;;;;2.28;71.23;95541.53;5052914;28;20045;-80
2022/12/10 07:45:39;;;;;;;28.48;17.83;;;;;;;2.26;70.92;95546.03;5044954;28;20136;-79
2022/12/10 07:48:08;;;;;;;25.33;16.92;;;;;;;2.26;71.16;95546.84;5044183;28;20049;-80
2022/12/10 07:50:40;;;;;;;27.13;16.77;;;;;;;2.25;71.43;95549.56;5042538;28;20053;-80
2022/12/10 07:53:09;;;;;;;27.83;17.48;;;;;;;2.26;71.04;95551.19;5036352;28;20060;-80
2022/12/10 07:55:39;;;;;;;26.48;18.05;;;;;;;2.25;70.63;95550.38;5036292;28;20054;-80
2022/12/10 07:58:06;;;;;;;24.45;17.17;;;;;;;2.27;70.59;95550.22;5042408;28;20041;-78
2022/12/10 08:00:34;;;;;;;24.95;16.90;;;;;;;2.25;70.76;95550.38;5055101;28;20064;-79
2022/12/10 08:03:02;;;;;;;28.88;17.67;;;;;;;2.24;70.22;95555.69;5040089;28;20061;-81
2022/12/10 08:05:29;;;;;;;28.88;17.40;;;;;;;2.20;69.96;95554.38;5036428;28;20081;-79
2022/12/10 08:07:58;;;;;;;26.00;16.52;;;;;;;2.15;70.44;95561.75;5045729;28;20100;-81
2022/12/10 08:10:34;;;;;;;26.63;16.98;;;;;;;2.12;70.15;95562.06;5055277;28;20075;-80
2022/12/10 08:13:02;;;;;;;23.70;16.30;;;;;;;2.05;70.33;95552.38;5044692;28;20060;-79
2022/12/10 08:15:30;;;;;;;29.30;17.38;;;;;;;2.02;70.19;95560.41;5046782;28;20049;-79
2022/12/10 08:17:57;;;;;;;30.35;18.55;;;;;;;2.00;70.57;95564.09;5055174;28;20044;-79
2022/12/10 08:20:26;;;;;;;27.35;16.67;;;;;;;1.99;70.45;95568.44;5042026;28;20045;-78
2022/12/10 08:22:53;;;;;;;25.15;16.75;;;;;;;1.97;70.45;95570.38;5035106;28;20646;-78
2022/12/10 08:25:22;;;;;;;25.98;16.77;;;;;;;1.95;70.39;95580.00;5035309;28;20062;-78
2022/12/10 08:27:50;;;;;;;31.38;18.60;;;;;;;1.92;70.11;95575.16;5039919;28;20041;-81
2022/12/10 08:30:18;;;;;;;27.92;17.60;;;;;;;1.90;70.08;95596.84;5045993;28;20092;-80
2022/12/10 08:32:45;;;;;;;25.65;17.23;;;;;;;1.88;70.53;95585.88;5039233;28;20045;-80
2022/12/10 08:35:13;;;;;;;25.10;16.50;;;;;;;1.87;70.52;95585.09;5022257;28;20045;-80
2022/12/10 08:37:41;;;;;;;23.42;15.48;;;;;;;1.89;70.29;95597.81;5035499;28;20045;-78
2022/12/10 08:40:10;;;;;;;24.10;16.65;;;;;;;1.90;70.00;95597.63;5034527;28;20053;-78
2022/12/10 08:42:39;;;;;;;24.48;16.70;;;;;;;1.89;70.13;95608.09;5036619;28;20049;-78
2022/12/10 08:45:08;;;;;;;25.92;17.00;;;;;;;1.88;70.04;95603.91;5054821;28;20045;-79
2022/12/10 08:47:36;;;;;;;25.92;16.67;;;;;;;1.88;70.31;95612.44;5053745;28;20049;-78
2022/12/10 08:50:03;;;;;;;45.95;26.65;;;;;;;1.87;70.63;95615.16;5034595;28;20522;-78
2022/12/10 08:52:31;;;;;;;93.70;54.65;;;;;;;1.87;70.38;95610.81;5036979;28;20056;-79
2022/12/10 08:54:59;;;;;;;34.35;21.90;;;;;;;1.87;70.22;95610.81;5026305;28;20056;-79
2022/12/10 08:57:26;;;;;;;28.30;18.35;;;;;;;1.87;70.60;95615.94;5019894;28;20060;-77
2022/12/10 08:59:55;;;;;;;27.10;17.50;;;;;;;1.89;70.14;95606.31;5047075;28;20045;-78
2022/12/10 09:02:23;;;;;;;25.55;16.42;;;;;;;1.93;70.52;95599.91;5035336;28;20434;-78
2022/12/10 09:04:52;;;;;;;24.98;16.08;;;;;;;1.95;69.90;95607.50;5054131;28;20061;-78
2022/12/10 09:07:20;;;;;;;25.55;17.27;;;;;;;1.97;69.90;95606.38;5053059;28;20418;-78
2022/12/10 09:09:48;;;;;;;26.70;17.30;;;;;;;1.96;70.00;95599.59;5053510;28;20045;-79
2022/12/10 09:12:18;;;;;;;27.20;17.63;;;;;;;1.97;70.00;95601.22;5052811;28;20059;-78
2022/12/10 09:14:46;;;;;;;26.20;17.48;;;;;;;2.02;70.20;95603.34;5034562;28;20072;-77
2022/12/10 09:17:15;;;;;;;27.17;16.83;;;;;;;2.06;69.80;95592.59;5035558;28;20111;-77
2022/12/10 09:19:43;;;;;;;29.17;18.35;;;;;;;2.08;69.98;95602.72;5049121;28;20041;-78
2022/12/10 09:22:10;;;;;;;29.45;17.85;;;;;;;2.11;69.90;95611.91;5034076;28;20053;-78
2022/12/10 09:24:40;;;;;;;27.02;17.60;;;;;;;2.12;69.92;95619.47;5036436;28;20079;-78
2022/12/10 09:27:08;;;;;;;29.50;18.20;;;;;;;2.15;70.05;95624.31;5053325;28;20052;-78
2022/12/10 09:29:36;;;;;;;28.08;17.73;;;;;;;2.17;70.31;95626.75;5052948;28;20048;-78
2022/12/10 09:32:04;;;;;;;34.10;20.52;;;;;;;2.19;69.90;95624.81;5051520;28;20049;-78
2022/12/10 09:34:33;;;;;;;58.67;36.25;;;;;;;2.20;69.84;95621.28;5034329;28;20080;-79
2022/12/10 09:37:01;;;;;;;37.97;23.30;;;;;;;2.21;69.63;95633.19;5047134;28;20069;-79
2022/12/10 09:39:31;;;;;;;28.30;19.67;;;;;;;2.23;69.63;95621.78;5054470;28;20080;-78
2022/12/10 09:42:14;;;;;;;31.27;19.58;;;;;;;2.28;69.95;95610.22;5044479;28;20494;-79
2022/12/10 09:44:54;;;;;;;27.55;18.00;;;;;;;2.29;69.52;95622.91;5035924;28;20045;-79
2022/12/10 09:47:28;;;;;;;25.40;17.25;;;;;;;2.27;68.96;95617.13;5039026;28;20045;-79
2022/12/10 09:50:06;;;;;;;28.70;17.92;;;;;;;2.25;69.43;95613.88;5034419;28;20048;-79
2022/12/10 09:52:45;;;;;;;26.27;17.00;;;;;;;2.26;69.19;95616.31;5034526;28;20206;-79
2022/12/10 09:55:17;;;;;;;25.95;17.50;;;;;;;2.25;69.17;95614.72;5054782;28;20063;-79
2022/12/10 09:57:47;;;;;;;29.27;18.30;;;;;;;2.26;69.24;95616.31;5066562;28;20063;-79
2022/12/10 10:00:22;;;;;;;27.08;17.92;;;;;;;2.28;68.82;95621.31;5055917;28;20051;-79
2022/12/10 10:02:55;;;;;;;26.85;17.35;;;;;;;2.29;69.18;95607.47;5043255;28;20045;-78
2022/12/10 10:05:27;;;;;;;26.70;16.67;;;;;;;2.28;68.92;95608.44;5033407;28;20046;-79
2022/12/10 10:07:56;;;;;;;27.80;18.15;;;;;;;2.31;68.96;95612.47;5035202;28;20071;-79
2022/12/10 10:10:27;;;;;;;26.00;16.40;;;;;;;2.33;68.74;95603.63;5040672;28;20133;-78
2022/12/10 10:13:01;;;;;;;27.48;17.90;;;;;;;2.36;69.03;95611.06;5038753;28;20140;-78
2022/12/10 10:15:34;;;;;;;26.67;17.13;;;;;;;2.39;69.59;95595.28;5033449;28;20072;-79
2022/12/10 10:18:10;;;;;;;30.73;18.25;;;;;;;2.41;69.15;95598.53;5033460;28;20060;-79
2022/12/10 10:20:39;;;;;;;27.08;17.05;;;;;;;2.43;69.40;95591.47;5049439;28;20048;-79
2022/12/10 10:23:06;;;;;;;29.13;17.73;;;;;;;2.47;70.56;95590.19;5044147;28;20046;-78
2022/12/10 10:25:34;;;;;;;27.77;18.38;;;;;;;2.54;70.49;95589.56;5049715;28;20064;-78
2022/12/10 10:28:04;;;;;;;26.90;18.02;;;;;;;2.55;69.83;95596.31;5056026;28;20045;-78
2022/12/10 10:30:33;;;;;;;27.00;17.40;;;;;;;2.59;70.23;95585.53;5052016;28;20049;-79
2022/12/10 10:33:08;;;;;;;25.02;17.33;;;;;;;2.63;70.15;95591.19;5052958;28;20131;-80
2022/12/10 10:35:46;;;;;;;25.00;16.45;;;;;;;2.63;69.65;95592.00;5034819;28;20060;-79
2022/12/10 10:38:20;;;;;;;24.33;16.80;;;;;;;2.64;69.10;95608.25;5040765;28;20502;-77
2022/12/10 10:40:52;;;;;;;42.45;24.65;;;;;;;2.64;69.07;95613.38;5053277;28;20055;-78
2022/12/10 10:43:24;;;;;;;39.67;23.02;;;;;;;2.65;68.56;95615.03;5053327;28;20048;-78
2022/12/10 10:45:58;;;;;;;37.75;23.42;;;;;;;2.66;70.42;95621.75;5053054;28;20064;-77
2022/12/10 10:48:28;;;;;;;28.52;19.10;;;;;;;2.71;69.89;95614.38;5033106;28;20049;-78
2022/12/10 10:51:08;;;;;;;28.67;16.80;;;;;;;2.71;68.54;95603.28;5032905;28;20052;-77
2022/12/10 10:53:43;;;;;;;28.20;17.10;;;;;;;2.67;67.40;95618.25;5033102;28;20072;-78
2022/12/10 10:56:16;;;;;;;29.10;17.85;;;;;;;2.63;69.00;95614.38;5035007;28;20049;-78
2022/12/10 10:58:55;;;;;;;25.52;17.05;;;;;;;2.61;68.32;95619.66;5036592;28;20056;-78
2022/12/10 11:01:25;;;;;;;24.05;17.27;;;;;;;2.64;69.00;95618.53;5036622;28;20060;-79
2022/12/10 11:03:56;;;;;;;26.05;17.08;;;;;;;2.66;68.44;95617.41;5065512;28;20109;-79
2022/12/10 11:06:26;;;;;;;24.35;16.05;;;;;;;2.66;67.85;95616.63;5078577;28;20059;-80
2022/12/10 11:08:58;;;;;;;24.85;16.05;;;;;;;2.64;68.27;95609.03;5072133;28;20049;-80
2022/12/10 11:11:34;;;;;;;22.65;15.50;;;;;;;2.66;68.27;95606.31;5062296;28;20053;-81
2022/12/10 11:14:15;;;;;;;22.50;15.27;;;;;;;2.69;68.80;95613.75;5061231;28;20111;-79
2022/12/10 11:16:42;;;;;;;25.02;16.10;;;;;;;2.71;68.65;95614.38;5043330;28;20049;-78
2022/12/10 11:19:21;;;;;;;23.17;16.55;;;;;;;2.74;68.91;95605.53;5037126;28;20045;-79
2022/12/10 11:21:51;;;;;;;25.70;15.93;;;;;;;2.75;67.92;95625.16;5045994;28;20049;-79
2022/12/10 11:24:20;;;;;;;24.48;16.88;;;;;;;2.77;68.83;95623.25;5037820;28;20056;-77
2022/12/10 11:27:00;;;;;;;24.90;16.27;;;;;;;2.78;68.22;95615.38;5047990;28;20045;-77
2022/12/10 11:29:46;;;;;;;30.88;20.30;;;;;;;2.77;67.42;95628.41;5027315;28;20400;-79
2022/12/10 11:32:26;;;;;;;46.90;27.67;;;;;;;2.77;68.10;95630.97;5036318;28;20443;-78
2022/12/10 11:35:06;;;;;;;39.90;25.13;;;;;;;2.80;68.44;95628.06;5047601;28;20063;-79
2022/12/10 11:37:40;;;;;;;28.38;18.77;;;;;;;2.83;68.51;95620.84;5035966;28;20049;-78
2022/12/10 11:40:28;;;;;;;25.15;17.45;;;;;;;2.83;66.51;95623.41;5043138;28;20411;-78
2022/12/10 11:43:09;;;;;;;25.77;17.20;;;;;;;2.80;67.17;95628.91;5036377;28;20103;-79
2022/12/10 11:45:53;;;;;;;29.20;17.08;;;;;;;2.77;67.36;95639.50;5050989;28;20684;-78
2022/12/10 11:48:35;;;;;;;24.63;16.48;;;;;;;2.78;67.22;95633.41;5056048;28;20052;-78
2022/12/10 11:51:17;;;;;;;24.85;15.63;;;;;;;2.76;66.87;95625.03;5054984;28;20454;-78
2022/12/10 11:54:12;;;;;;;25.05;16.55;;;;;;;2.78;68.67;95615.38;5054794;28;20045;-77
2022/12/10 11:56:44;;;;;;;23.35;15.15;;;;;;;2.79;67.11;95609.25;5037831;28;20053;-78
2022/12/10 11:59:19;;;;;;;24.83;16.75;;;;;;;2.78;66.47;95609.44;5037012;28;20061;-79
2022/12/10 12:02:09;;;;;;;21.15;15.57;;;;;;;2.76;66.01;95607.00;5036841;28;20055;-77
2022/12/10 12:04:58;;;;;;;23.60;15.77;;;;;;;2.77;66.79;95618.91;5044397;28;20048;-79
2022/12/10 12:07:39;;;;;;;23.10;15.68;;;;;;;2.78;66.53;95612.00;5054097;28;20539;-78
2022/12/10 12:10:39;;;;;;;22.92;15.20;;;;;;;2.76;66.06;95601.03;5030205;28;20056;-79
2022/12/10 12:13:26;;;;;;;23.73;15.98;;;;;;;2.77;67.44;95620.66;5035578;28;20486;-79
2022/12/10 12:15:56;;;;;;;;;;;;;;;2.82;68.00;95621.81;5055037;28;20507;-78
2022/12/10 12:18:31;;;;;;;23.58;15.13;;;;;;;2.82;68.23;95632.13;5055670;28;19924;-78
2022/12/10 12:21:03;;;;;;;25.88;16.40;;;;;;;2.83;68.16;95638.88;5054593;28;20049;-78
2022/12/10 12:23:38;;;;;;;24.13;16.33;;;;;;;2.83;69.28;95638.88;5056145;28;20400;-77